CheckWX is a tool to help pilots better visualize weather data.  It is not intended as a substitute for an official pre-flight weather briefing.

07:33:55 UTC

VTBS METAR
Suvarnabhumi Airport
Bangkok, Thailand
Current

34 mins ago

VTBS 310700Z 20011KT 9000 FEW030 35/24 Q1008 NOSIG
Observed
Mar-31 @ 07:00 UTC
Wind
  • 200° at 11 KTS
Visibility
8996 meters
Flight Rules
VFR
Cloud Levels
  • Few at 3,000' AGL
Temperature
35°C / 95°F
Dewpoint
24°C / 75°F
Humidity
53%
Altimeter
29.76" Hg
Pressure
1007.92 hPa
Previous

1 hour ago

VTBS 310630Z 17012KT 9000 FEW030 35/24 Q1009 NOSIG
Observed
Mar-31 @ 06:30 UTC
Wind
  • 170° at 12 KTS
Visibility
8996 meters
Flight Rules
VFR
Cloud Levels
  • Few at 3,000' AGL
Temperature
35°C / 95°F
Dewpoint
24°C / 75°F
Humidity
53%
Altimeter
29.79" Hg
Pressure
1008.92 hPa
Previous

2 hours ago

VTBS 310600Z 18012KT 9000 FEW030 35/24 Q1009 NOSIG
Observed
Mar-31 @ 06:00 UTC
Wind
  • 180° at 12 KTS
Visibility
8996 meters
Flight Rules
VFR
Cloud Levels
  • Few at 3,000' AGL
Temperature
35°C / 95°F
Dewpoint
24°C / 75°F
Humidity
53%
Altimeter
29.79" Hg
Pressure
1008.92 hPa